Time;durP1;ratioP1;P1;durP2;ratioP2;P2;SDS_P1;SDS_P2;PMS_P1;PMS_P2;Temp;Humidity;BMP_temperature;BMP_pressure;BME280_temperature;BME280_humidity;BME280_pressure;Samples;Min_cycle;Max_cycle;Signal;HPM_P1;HPM_P2
2023/09/20 00:02:13;;;;;;;7.63;2.33;;;13.90;99.90;;;;;;5009630;28;20508;-65
2023/09/20 00:04:42;;;;;;;8.37;2.60;;;14.00;99.90;;;;;;5010320;28;20452;-65
2023/09/20 00:07:11;;;;;;;8.60;2.00;;;14.20;99.90;;;;;;5009798;28;20833;-66
2023/09/20 00:09:40;;;;;;;8.03;2.30;;;14.20;99.90;;;;;;5010171;28;20478;-65
2023/09/20 00:12:09;;;;;;;7.73;2.20;;;14.10;99.90;;;;;;5009458;28;20465;-65
2023/09/20 00:14:37;;;;;;;7.60;2.53;;;14.10;99.90;;;;;;5010060;28;20533;-65
2023/09/20 00:17:06;;;;;;;8.83;2.30;;;13.90;99.90;;;;;;5009398;28;20455;-66
2023/09/20 00:19:34;;;;;;;8.50;3.00;;;13.80;99.90;;;;;;5009975;28;20513;-65
2023/09/20 00:22:02;;;;;;;8.40;2.80;;;13.60;99.90;;;;;;5009854;28;20453;-66
2023/09/20 00:24:33;;;;;;;7.53;2.50;;;13.50;99.90;;;;;;5010198;28;20446;-66
2023/09/20 00:27:01;;;;;;;8.13;2.30;;;13.40;99.90;;;;;;5009424;28;20454;-66
2023/09/20 00:29:29;;;;;;;8.30;2.70;;;13.30;99.90;;;;;;5010007;28;20468;-66
2023/09/20 00:31:57;;;;;;;7.80;2.60;;;13.20;99.90;;;;;;5009815;28;20450;-65
2023/09/20 00:34:26;;;;;;;7.40;2.10;;;13.10;99.90;;;;;;5010020;28;20513;-65
2023/09/20 00:36:54;;;;;;;8.33;2.70;;;13.10;99.90;;;;;;5018638;28;20457;-64
2023/09/20 00:39:23;;;;;;;9.10;2.73;;;13.20;99.90;;;;;;5009419;28;20551;-65
2023/09/20 00:41:52;;;;;;;7.77;2.40;;;13.10;99.90;;;;;;5009678;28;21001;-66
2023/09/20 00:44:20;;;;;;;7.10;2.47;;;13.10;99.90;;;;;;5009708;28;20474;-66
2023/09/20 00:46:48;;;;;;;8.07;2.67;;;13.10;99.90;;;;;;5009483;28;20508;-64
2023/09/20 00:49:16;;;;;;;9.43;2.80;;;13.00;99.90;;;;;;5009527;28;20465;-65
2023/09/20 00:51:47;;;;;;;9.50;2.77;;;13.10;99.90;;;;;;5009777;28;20462;-64
2023/09/20 00:54:17;;;;;;;7.20;2.37;;;13.00;99.90;;;;;;5009420;28;20449;-66
2023/09/20 00:56:45;;;;;;;7.80;2.50;;;13.00;99.90;;;;;;5009295;28;20450;-64
2023/09/20 00:59:15;;;;;;;12.50;2.67;;;13.00;99.90;;;;;;5010188;28;20548;-66
2023/09/20 01:01:43;;;;;;;7.87;2.70;;;13.00;99.90;;;;;;5009639;28;20532;-65
2023/09/20 01:04:12;;;;;;;7.97;2.10;;;13.00;99.90;;;;;;5009167;28;20467;-66
2023/09/20 01:06:41;;;;;;;9.40;2.60;;;13.00;99.90;;;;;;5009002;28;20517;-66
2023/09/20 01:09:10;;;;;;;8.07;2.97;;;13.00;99.90;;;;;;5009464;28;20504;-66
2023/09/20 01:11:38;;;;;;;8.00;2.73;;;13.10;99.90;;;;;;5009367;28;20874;-66
2023/09/20 01:14:06;;;;;;;8.70;2.57;;;13.20;99.90;;;;;;5009295;28;20470;-66
2023/09/20 01:16:36;;;;;;;8.13;2.33;;;13.30;99.90;;;;;;5009140;28;20481;-65
2023/09/20 01:19:04;;;;;;;8.47;2.40;;;13.40;99.90;;;;;;5009086;28;20992;-65
2023/09/20 01:21:40;;;;;;;8.30;2.00;;;13.40;99.90;;;;;;5009307;28;20545;-65
2023/09/20 01:24:10;;;;;;;8.20;2.60;;;13.30;99.90;;;;;;5011359;28;20468;-66
2023/09/20 01:26:41;;;;;;;7.73;2.53;;;13.20;99.90;;;;;;5012768;28;20933;-65
2023/09/20 01:29:09;;;;;;;8.13;2.73;;;13.20;99.90;;;;;;5013095;28;20910;-65
2023/09/20 01:31:37;;;;;;;7.70;2.63;;;13.20;99.90;;;;;;5013246;28;20479;-66
2023/09/20 01:34:05;;;;;;;7.90;2.03;;;13.10;99.90;;;;;;5013261;28;20995;-66
2023/09/20 01:36:34;;;;;;;8.00;2.53;;;13.10;99.90;;;;;;5013158;28;20476;-65
2023/09/20 01:39:09;;;;;;;7.10;2.10;;;12.90;99.90;;;;;;5012941;28;20480;-66
2023/09/20 01:41:37;;;;;;;10.00;3.07;;;13.00;99.90;;;;;;5012852;28;20533;-65
2023/09/20 01:44:06;;;;;;;9.90;2.77;;;13.00;99.90;;;;;;5012810;28;20454;-65
2023/09/20 01:46:36;;;;;;;9.33;3.00;;;13.00;99.90;;;;;;5012808;28;20457;-65
2023/09/20 01:49:06;;;;;;;11.10;2.60;;;12.90;99.90;;;;;;5012890;28;20861;-65
2023/09/20 01:51:34;;;;;;;7.60;2.30;;;13.00;99.90;;;;;;5012745;28;20908;-65
2023/09/20 01:54:04;;;;;;;8.77;2.90;;;13.10;99.90;;;;;;5012419;28;20508;-65
2023/09/20 01:56:32;;;;;;;8.77;2.97;;;13.20;99.90;;;;;;5012245;28;20449;-66
2023/09/20 01:59:00;;;;;;;8.17;2.60;;;13.30;99.90;;;;;;5011812;28;20573;-65
2023/09/20 02:01:29;;;;;;;8.20;2.73;;;13.20;99.90;;;;;;5011945;28;20453;-63
2023/09/20 02:03:57;;;;;;;8.10;2.47;;;13.20;99.90;;;;;;5011616;28;20805;-65
2023/09/20 02:06:26;;;;;;;8.53;2.37;;;13.20;99.90;;;;;;5011875;28;20451;-65
2023/09/20 02:08:54;;;;;;;9.03;2.50;;;13.10;99.90;;;;;;5012283;28;20504;-65
2023/09/20 02:11:23;;;;;;;9.60;2.73;;;13.00;99.90;;;;;;5012378;28;20534;-64
2023/09/20 02:13:53;;;;;;;7.70;2.47;;;13.00;99.90;;;;;;5012604;28;20442;-66
2023/09/20 02:16:21;;;;;;;9.20;2.73;;;13.00;99.90;;;;;;5004146;28;20469;-65
2023/09/20 02:18:51;;;;;;;8.30;2.83;;;13.00;99.90;;;;;;5012155;28;20465;-66
2023/09/20 02:21:19;;;;;;;8.10;2.80;;;13.10;99.90;;;;;;5011702;28;20503;-66
2023/09/20 02:23:47;;;;;;;9.70;2.87;;;13.00;99.90;;;;;;5012074;28;21006;-66
2023/09/20 02:26:15;;;;;;;9.93;2.90;;;13.10;99.90;;;;;;5011702;28;20962;-65
2023/09/20 02:28:45;;;;;;;8.53;2.70;;;13.10;99.90;;;;;;5012132;28;20904;-67
2023/09/20 02:31:13;;;;;;;8.63;3.50;;;13.10;99.90;;;;;;5011499;28;20942;-65
2023/09/20 02:33:42;;;;;;;8.60;2.77;;;13.10;99.90;;;;;;5012191;28;20539;-66
2023/09/20 02:36:11;;;;;;;8.50;2.97;;;13.00;99.90;;;;;;5010948;28;20481;-66
2023/09/20 02:38:39;;;;;;;9.17;3.33;;;12.90;99.90;;;;;;5011615;28;20551;-66
2023/09/20 02:41:08;;;;;;;9.03;2.60;;;13.10;99.90;;;;;;5011360;28;21054;-66
2023/09/20 02:43:38;;;;;;;8.03;2.93;;;13.20;99.90;;;;;;5011993;28;20481;-66
2023/09/20 02:46:08;;;;;;;8.70;2.60;;;13.10;99.90;;;;;;5012026;28;20461;-66
2023/09/20 02:48:36;;;;;;;8.20;2.60;;;13.00;99.90;;;;;;5011243;28;20485;-65
2023/09/20 02:51:05;;;;;;;9.03;3.07;;;12.90;99.90;;;;;;5011539;28;20454;-65
2023/09/20 02:53:35;;;;;;;8.60;3.13;;;12.90;99.90;;;;;;5011779;28;20456;-66
2023/09/20 02:56:05;;;;;;;10.00;3.57;;;12.90;99.90;;;;;;5011651;28;20511;-66
2023/09/20 02:58:33;;;;;;;9.37;3.50;;;13.00;99.90;;;;;;5011022;28;20842;-66
2023/09/20 03:01:02;;;;;;;10.00;3.37;;;12.90;99.90;;;;;;5011042;28;20477;-66
2023/09/20 03:03:31;;;;;;;11.97;4.30;;;12.90;99.90;;;;;;5011077;28;20446;-66
2023/09/20 03:06:09;;;;;;;10.70;3.67;;;12.90;99.90;;;;;;5011149;28;20452;-65
2023/09/20 03:08:44;;;;;;;10.80;3.50;;;13.10;99.90;;;;;;5010970;28;20827;-65
2023/09/20 03:11:20;;;;;;;9.50;3.90;;;13.20;99.90;;;;;;5011325;28;20510;-66
2023/09/20 03:13:49;;;;;;;8.90;3.17;;;13.30;99.90;;;;;;5011162;28;20452;-66
2023/09/20 03:16:18;;;;;;;9.20;3.63;;;13.30;99.90;;;;;;5011093;28;20446;-66
2023/09/20 03:18:49;;;;;;;9.03;3.33;;;13.30;99.90;;;;;;5011157;28;20461;-66
2023/09/20 03:21:19;;;;;;;11.33;4.17;;;13.40;99.90;;;;;;5010791;28;20919;-66
2023/09/20 03:23:47;;;;;;;9.10;3.33;;;13.40;99.90;;;;;;5011108;28;20889;-66
2023/09/20 03:26:16;;;;;;;8.97;3.60;;;13.40;99.90;;;;;;5010364;28;20465;-65
2023/09/20 03:28:46;;;;;;;11.10;3.77;;;13.40;99.90;;;;;;5010970;28;20469;-66
2023/09/20 03:31:15;;;;;;;8.30;3.13;;;13.40;99.90;;;;;;5010717;28;20512;-65
2023/09/20 03:33:46;;;;;;;8.67;3.30;;;13.40;99.90;;;;;;5010957;28;20533;-65
2023/09/20 03:36:16;;;;;;;9.93;3.33;;;13.50;99.90;;;;;;5010244;28;20962;-65
2023/09/20 03:38:45;;;;;;;9.57;4.30;;;13.50;99.90;;;;;;5010747;28;20466;-65
2023/09/20 03:41:13;;;;;;;9.10;3.50;;;13.50;99.90;;;;;;5010635;28;20568;-65
2023/09/20 03:43:41;;;;;;;8.90;3.60;;;13.60;99.90;;;;;;5010828;28;20540;-66
2023/09/20 03:46:09;;;;;;;12.67;4.07;;;13.60;99.90;;;;;;5010036;28;20474;-65
2023/09/20 03:48:37;;;;;;;9.27;3.40;;;13.60;99.90;;;;;;5009611;28;20457;-64
2023/09/20 03:51:07;;;;;;;12.17;3.23;;;13.40;99.90;;;;;;5010357;28;20449;-65
2023/09/20 03:53:37;;;;;;;10.20;3.57;;;13.30;99.90;;;;;;5010278;28;20454;-65
2023/09/20 03:56:09;;;;;;;10.30;3.27;;;13.20;99.90;;;;;;5010134;28;20449;-64
2023/09/20 03:58:36;;;;;;;10.17;3.80;;;13.00;99.90;;;;;;5009697;28;20819;-65
2023/09/20 04:01:05;;;;;;;9.17;3.23;;;12.80;99.90;;;;;;5010435;28;20506;-65
2023/09/20 04:03:34;;;;;;;9.97;3.27;;;12.80;99.90;;;;;;5010447;28;20838;-65
2023/09/20 04:06:02;;;;;;;10.10;3.90;;;12.80;99.90;;;;;;5010505;28;20830;-65
2023/09/20 04:08:31;;;;;;;9.00;3.53;;;12.70;99.90;;;;;;5010554;28;20461;-64
2023/09/20 04:11:00;;;;;;;9.83;3.63;;;12.70;99.90;;;;;;5010517;28;20434;-65
2023/09/20 04:13:29;;;;;;;9.17;4.03;;;12.60;99.90;;;;;;5010584;28;20477;-66
2023/09/20 04:15:57;;;;;;;8.97;3.73;;;12.70;99.90;;;;;;5010317;28;20454;-65
2023/09/20 04:18:26;;;;;;;10.33;3.67;;;12.60;99.90;;;;;;5010461;28;20502;-65
2023/09/20 04:20:54;;;;;;;10.10;3.83;;;12.70;99.90;;;;;;5010150;28;20527;-65
2023/09/20 04:23:22;;;;;;;11.20;4.30;;;12.60;99.90;;;;;;5010552;28;20449;-65
2023/09/20 04:25:51;;;;;;;9.60;3.67;;;12.60;99.90;;;;;;5010383;28;20885;-65
2023/09/20 04:28:20;;;;;;;9.23;3.50;;;12.60;99.90;;;;;;5009594;28;20921;-65
2023/09/20 04:30:48;;;;;;;9.50;3.57;;;12.60;99.90;;;;;;5009931;28;20442;-65
2023/09/20 04:33:17;;;;;;;8.70;3.57;;;12.70;99.90;;;;;;5009790;28;20482;-65
2023/09/20 04:35:47;;;;;;;9.90;3.70;;;12.80;99.90;;;;;;5009779;28;20477;-66
2023/09/20 04:38:15;;;;;;;9.70;3.90;;;12.70;99.90;;;;;;5009137;28;20549;-65
2023/09/20 04:40:43;;;;;;;11.30;3.70;;;12.90;99.90;;;;;;5009818;28;20891;-66
2023/09/20 04:43:14;;;;;;;8.40;3.10;;;12.80;99.90;;;;;;5009268;28;20449;-65
2023/09/20 04:45:44;;;;;;;10.73;4.53;;;13.00;99.90;;;;;;5009537;28;20445;-65
2023/09/20 04:48:13;;;;;;;9.60;3.17;;;13.10;99.90;;;;;;5008765;28;20997;-64
2023/09/20 04:50:41;;;;;;;8.17;3.23;;;13.10;99.90;;;;;;5015250;28;21016;-65
2023/09/20 04:53:09;;;;;;;8.70;3.80;;;13.00;99.90;;;;;;5009610;28;20445;-67
2023/09/20 04:55:37;;;;;;;10.70;3.43;;;12.80;99.90;;;;;;5010062;28;20449;-66
2023/09/20 04:58:06;;;;;;;10.47;4.60;;;12.80;99.90;;;;;;5008334;28;20996;-65
2023/09/20 05:00:37;;;;;;;9.67;3.20;;;12.80;99.90;;;;;;5009579;28;20896;-65
2023/09/20 05:03:06;;;;;;;8.67;2.53;;;12.90;99.90;;;;;;5009180;28;20496;-65
2023/09/20 05:05:34;;;;;;;9.50;2.80;;;13.00;99.90;;;;;;5008708;28;20458;-64
2023/09/20 05:08:03;;;;;;;8.40;2.97;;;13.00;99.90;;;;;;5007908;28;20508;-67
2023/09/20 05:10:32;;;;;;;9.27;3.30;;;12.90;99.90;;;;;;5001187;28;21095;-65
2023/09/20 05:13:00;;;;;;;9.40;2.83;;;12.90;99.90;;;;;;5001782;28;20460;-66
2023/09/20 05:15:28;;;;;;;8.87;3.03;;;12.90;99.90;;;;;;5008545;28;20448;-65
2023/09/20 05:17:56;;;;;;;8.50;3.00;;;12.80;99.90;;;;;;5008023;28;20949;-64
2023/09/20 05:20:26;;;;;;;8.53;3.20;;;12.70;99.90;;;;;;5008922;28;20496;-64
2023/09/20 05:22:54;;;;;;;8.10;3.07;;;12.60;99.90;;;;;;5008984;28;20539;-65
2023/09/20 05:25:23;;;;;;;9.70;3.40;;;12.70;99.90;;;;;;5009395;28;20449;-65
2023/09/20 05:27:51;;;;;;;8.70;3.23;;;12.80;99.90;;;;;;5008520;28;20886;-66
2023/09/20 05:30:19;;;;;;;7.77;2.57;;;12.90;99.90;;;;;;5008824;28;20473;-66
2023/09/20 05:32:51;;;;;;;8.87;3.20;;;12.90;99.90;;;;;;5009063;28;20452;-66
2023/09/20 05:35:19;;;;;;;7.77;2.87;;;12.90;99.90;;;;;;5009089;28;20536;-65
2023/09/20 05:37:49;;;;;;;8.90;2.60;;;12.80;99.90;;;;;;5008954;28;20441;-66
2023/09/20 05:40:18;;;;;;;10.57;3.07;;;12.90;99.90;;;;;;5009212;28;20446;-67
2023/09/20 05:42:46;;;;;;;9.57;2.80;;;13.00;99.90;;;;;;5009253;28;20551;-66
2023/09/20 05:45:15;;;;;;;9.60;2.57;;;13.10;99.90;;;;;;5009050;28;20545;-66
2023/09/20 05:47:43;;;;;;;9.43;3.03;;;13.00;99.90;;;;;;5008577;28;20478;-66
2023/09/20 05:50:13;;;;;;;9.73;3.20;;;13.00;99.90;;;;;;5008817;28;20525;-66
2023/09/20 05:52:43;;;;;;;10.03;3.10;;;13.10;99.90;;;;;;5009370;28;20438;-66
2023/09/20 05:55:14;;;;;;;8.43;2.70;;;13.10;99.90;;;;;;5008895;28;20938;-66
2023/09/20 05:57:43;;;;;;;8.30;3.10;;;13.10;99.90;;;;;;5008673;28;20850;-67
2023/09/20 06:00:16;;;;;;;8.50;2.90;;;13.20;99.90;;;;;;5008901;28;20885;-65
2023/09/20 06:02:44;;;;;;;7.00;2.20;;;13.40;99.90;;;;;;5008840;28;20484;-65
2023/09/20 06:05:14;;;;;;;7.77;2.67;;;13.40;99.90;;;;;;5009029;28;20457;-66
2023/09/20 06:07:44;;;;;;;9.53;3.70;;;13.50;99.90;;;;;;5008444;28;20446;-65
2023/09/20 06:10:17;;;;;;;7.80;2.70;;;13.70;99.90;;;;;;5009455;28;20515;-65
2023/09/20 06:12:45;;;;;;;7.37;2.23;;;13.70;99.90;;;;;;5012442;28;20441;-66
2023/09/20 06:15:14;;;;;;;9.50;2.30;;;13.90;99.90;;;;;;5012046;28;20472;-65
2023/09/20 06:17:43;;;;;;;7.47;2.30;;;14.10;99.90;;;;;;5010412;28;20864;-66
2023/09/20 06:20:13;;;;;;;8.00;2.37;;;14.20;99.90;;;;;;5007515;28;20448;-66
2023/09/20 06:22:42;;;;;;;9.93;2.53;;;14.40;99.90;;;;;;5010165;28;21041;-66
2023/09/20 06:25:11;;;;;;;8.50;2.60;;;14.50;99.90;;;;;;5015909;28;20454;-66
2023/09/20 06:27:41;;;;;;;6.97;2.20;;;14.70;99.90;;;;;;5009630;28;20445;-65
2023/09/20 06:30:13;;;;;;;8.43;2.40;;;15.00;99.90;;;;;;5011462;28;20446;-65
2023/09/20 06:32:42;;;;;;;8.30;2.30;;;15.10;99.90;;;;;;5010243;28;20444;-66
2023/09/20 06:35:11;;;;;;;8.83;2.50;;;15.40;99.90;;;;;;5012269;28;20453;-66
2023/09/20 06:37:39;;;;;;;9.10;2.77;;;15.60;99.90;;;;;;5011615;28;20460;-65
2023/09/20 06:40:21;;;;;;;8.43;2.17;;;15.70;99.90;;;;;;5011471;28;20442;-66
2023/09/20 06:42:51;;;;;;;7.50;1.90;;;15.90;99.90;;;;;;5010976;28;20477;-66
2023/09/20 06:45:19;;;;;;;8.83;1.70;;;16.10;99.90;;;;;;5011349;28;20459;-66
2023/09/20 06:47:47;;;;;;;8.60;1.97;;;16.30;99.90;;;;;;5011349;28;20558;-66
2023/09/20 06:50:15;;;;;;;7.70;1.73;;;16.40;99.90;;;;;;5011657;28;20836;-67
2023/09/20 06:52:43;;;;;;;8.00;2.00;;;16.50;99.90;;;;;;5010790;28;20446;-65
2023/09/20 06:55:16;;;;;;;7.80;1.87;;;16.60;99.90;;;;;;5011729;28;20442;-65
2023/09/20 06:57:45;;;;;;;7.00;2.10;;;16.70;99.90;;;;;;5011283;28;20454;-66
2023/09/20 07:00:20;;;;;;;6.90;1.53;;;16.90;99.90;;;;;;5011686;28;20456;-66
2023/09/20 07:02:52;;;;;;;7.97;2.57;;;17.00;99.90;;;;;;5011051;28;20488;-66
2023/09/20 07:05:24;;;;;;;7.80;2.03;;;17.20;99.90;;;;;;5010715;28;20957;-66
2023/09/20 07:07:53;;;;;;;7.30;1.90;;;17.50;99.90;;;;;;5011297;28;20438;-66
2023/09/20 07:10:22;;;;;;;10.43;2.30;;;17.60;99.90;;;;;;5011590;28;20470;-67
2023/09/20 07:12:50;;;;;;;9.83;1.70;;;17.80;99.90;;;;;;5011680;28;20458;-67
2023/09/20 07:15:20;;;;;;;8.83;2.40;;;18.10;99.90;;;;;;5011504;28;20493;-66
2023/09/20 07:17:58;;;;;;;7.40;1.90;;;18.30;99.90;;;;;;5010880;28;20454;-66
2023/09/20 07:20:26;;;;;;;8.63;2.20;;;18.50;99.90;;;;;;5011521;28;20433;-66
2023/09/20 07:22:55;;;;;;;7.90;2.03;;;18.80;99.90;;;;;;5011438;28;20536;-66
2023/09/20 07:25:27;;;;;;;7.50;1.50;;;19.10;99.90;;;;;;5011354;28;20453;-65
2023/09/20 07:27:58;;;;;;;7.90;1.50;;;19.50;99.90;;;;;;5010793;28;20585;-65
2023/09/20 07:30:31;;;;;;;8.50;1.90;;;19.60;99.90;;;;;;5011667;28;20930;-65
2023/09/20 07:33:02;;;;;;;7.97;2.07;;;19.80;99.90;;;;;;5011082;28;20442;-65
2023/09/20 07:35:47;;;;;;;8.13;2.07;;;19.80;99.90;;;;;;5004492;28;20438;-65
2023/09/20 07:38:25;;;;;;;7.50;1.90;;;19.90;99.90;;;;;;5010349;28;20564;-66
2023/09/20 07:41:05;;;;;;;6.63;1.60;;;19.90;99.90;;;;;;5011319;28;20544;-66
2023/09/20 07:43:34;;;;;;;7.40;1.80;;;19.90;99.90;;;;;;5010798;28;20480;-65
2023/09/20 07:46:06;;;;;;;8.90;1.93;;;20.20;99.90;;;;;;5010864;28;20449;-65
2023/09/20 07:48:37;;;;;;;7.93;1.63;;;20.20;99.90;;;;;;5010531;28;20977;-66
2023/09/20 07:51:10;;;;;;;8.30;1.70;;;20.30;99.90;;;;;;5010754;28;20989;-66
2023/09/20 07:53:41;;;;;;;8.23;1.67;;;20.40;99.90;;;;;;5010977;28;20433;-66
2023/09/20 07:56:11;;;;;;;7.50;1.80;;;20.40;99.90;;;;;;5010647;28;20438;-66
2023/09/20 07:58:40;;;;;;;6.70;1.87;;;20.40;99.90;;;;;;5010255;28;20468;-66
2023/09/20 08:01:21;;;;;;;8.65;1.70;;;20.60;99.90;;;;;;5010132;28;20435;-65
2023/09/20 08:03:52;;;;;;;7.03;1.53;;;20.60;99.90;;;;;;5010858;28;20272;-66
2023/09/20 08:06:25;;;;;;;8.73;2.10;;;20.70;99.90;;;;;;5010026;28;20442;-65
2023/09/20 08:08:52;;;;;;;8.03;1.90;;;20.70;99.90;;;;;;5010418;28;20608;-66
2023/09/20 08:11:20;;;;;;;9.00;2.10;;;20.80;99.90;;;;;;5010359;28;20683;-65
2023/09/20 08:13:51;;;;;;;7.13;1.83;;;21.20;99.90;;;;;;5010248;28;21029;-67
2023/09/20 08:16:21;;;;;;;7.57;2.20;;;21.40;99.90;;;;;;5010263;28;20450;-66
2023/09/20 08:19:04;;;;;;;9.87;2.17;;;21.70;99.90;;;;;;5010190;28;20489;-66
2023/09/20 08:21:34;;;;;;;8.23;2.10;;;22.00;99.90;;;;;;5010407;28;20492;-66
2023/09/20 09:00:24;;;;;;;6.83;1.63;;;24.40;97.70;;;;;;5009628;28;20442;-66
2023/09/20 09:02:56;;;;;;;7.17;1.67;;;24.30;97.20;;;;;;5009666;28;20477;-66
2023/09/20 09:05:28;;;;;;;7.07;1.77;;;24.30;99.90;;;;;;5009587;28;20495;-66
2023/09/20 09:07:58;;;;;;;11.77;2.20;;;24.60;98.10;;;;;;5009069;28;20452;-66
2023/09/20 09:10:26;;;;;;;8.33;1.77;;;24.70;96.70;;;;;;5009409;28;20450;-66
2023/09/20 09:12:55;;;;;;;8.70;2.00;;;25.00;96.90;;;;;;5009324;28;20933;-66
2023/09/20 09:15:24;;;;;;;8.77;2.10;;;25.40;95.70;;;;;;5009421;28;20979;-65
2023/09/20 09:17:53;;;;;;;8.40;2.20;;;25.50;95.10;;;;;;5009133;28;20500;-67
2023/09/20 09:20:22;;;;;;;7.80;2.30;;;25.80;94.80;;;;;;5009478;28;20457;-67
2023/09/20 09:22:52;;;;;;;9.47;2.03;;;26.10;94.10;;;;;;5009622;28;20453;-66
2023/09/20 09:25:25;;;;;;;11.00;2.47;;;26.40;91.50;;;;;;5010512;28;20458;-67
2023/09/20 09:27:54;;;;;;;9.90;1.97;;;26.50;93.40;;;;;;5008966;28;20533;-67
2023/09/20 09:30:22;;;;;;;7.60;2.10;;;26.60;92.50;;;;;;5009338;28;20453;-67
2023/09/20 09:32:51;;;;;;;10.50;2.00;;;26.60;90.40;;;;;;5009435;28;20453;-67
2023/09/20 09:35:22;;;;;;;7.30;1.63;;;26.40;91.60;;;;;;5009203;28;20438;-67
2023/09/20 09:37:54;;;;;;;8.00;1.90;;;26.50;89.30;;;;;;5008965;28;20454;-66
2023/09/20 09:40:22;;;;;;;8.80;2.00;;;26.50;91.00;;;;;;5009341;28;20523;-67
2023/09/20 09:42:51;;;;;;;8.93;2.23;;;26.50;86.60;;;;;;5009394;28;20883;-68
2023/09/20 09:45:31;;;;;;;9.20;2.13;;;26.40;90.70;;;;;;5009678;28;20539;-67
2023/09/20 09:48:05;;;;;;;8.77;2.27;;;26.50;89.70;;;;;;5013049;28;20517;-68
2023/09/20 09:50:38;;;;;;;7.97;2.10;;;26.50;84.20;;;;;;5005751;28;20441;-66
2023/09/20 09:53:09;;;;;;;6.80;1.83;;;26.60;85.10;;;;;;5013347;28;20438;-67
2023/09/20 09:55:38;;;;;;;7.80;1.90;;;26.80;84.80;;;;;;5013073;28;20442;-65
2023/09/20 09:58:06;;;;;;;7.43;2.53;;;26.80;81.20;;;;;;5012364;28;20469;-67
2023/09/20 10:00:36;;;;;;;8.10;1.90;;;26.90;76.50;;;;;;5005146;28;20861;-66
2023/09/20 10:03:12;;;;;;;7.70;2.10;;;26.80;78.80;;;;;;5013023;28;20438;-67
2023/09/20 10:05:45;;;;;;;8.00;2.07;;;26.80;77.10;;;;;;5012948;28;20441;-68
2023/09/20 10:08:21;;;;;;;7.30;1.73;;;26.80;79.00;;;;;;5012200;28;20467;-67
2023/09/20 10:10:49;;;;;;;8.67;2.13;;;26.90;75.50;;;;;;5013209;28;20443;-67
2023/09/20 10:13:18;;;;;;;7.60;2.30;;;27.10;80.00;;;;;;5012838;28;20529;-67
2023/09/20 10:15:46;;;;;;;7.30;2.13;;;27.30;74.80;;;;;;5013113;28;20951;-66
2023/09/20 10:18:14;;;;;;;8.30;1.90;;;27.30;73.40;;;;;;5012050;28;20477;-67
2023/09/20 10:21:04;;;;;;;7.50;2.10;;;27.60;72.30;;;;;;5012952;28;20446;-66
2023/09/20 10:23:36;;;;;;;6.80;1.63;;;27.90;66.70;;;;;;5012500;28;20434;-66
2023/09/20 10:26:13;;;;;;;8.03;2.23;;;28.10;67.10;;;;;;5012814;28;20825;-66
2023/09/20 10:28:42;;;;;;;8.10;2.30;;;28.30;63.50;;;;;;5012138;28;20488;-66
2023/09/20 10:31:15;;;;;;;7.37;1.90;;;28.10;61.70;;;;;;5012123;28;20442;-65
2023/09/20 10:33:47;;;;;;;8.03;1.53;;;27.40;64.00;;;;;;5012887;28;20441;-66
2023/09/20 10:36:22;;;;;;;9.43;2.37;;;27.10;65.60;;;;;;5011808;28;20911;-65
2023/09/20 10:39:21;;;;;;;9.20;1.93;;;27.60;62.70;;;;;;5012154;28;20541;-66
2023/09/20 10:41:51;;;;;;;8.10;2.10;;;28.20;60.00;;;;;;5012120;28;20536;-66
2023/09/20 10:44:28;;;;;;;7.50;2.20;;;28.50;56.80;;;;;;5012159;28;20481;-68
2023/09/20 10:46:58;;;;;;;7.90;2.00;;;28.50;53.00;;;;;;5011699;28;20452;-67
2023/09/20 10:49:43;;;;;;;8.87;2.83;;;28.70;53.00;;;;;;5011742;28;20524;-66
2023/09/20 10:52:11;;;;;;;7.63;2.07;;;29.50;52.10;;;;;;5011611;28;20453;-65
2023/09/20 10:54:41;;;;;;;8.73;2.07;;;29.70;49.70;;;;;;5011700;28;20977;-68
2023/09/20 10:57:11;;;;;;;7.60;2.50;;;30.00;48.70;;;;;;5010951;28;20580;-66
2023/09/20 10:59:43;;;;;;;8.50;2.27;;;29.50;48.40;;;;;;5004283;28;20466;-65
2023/09/20 11:02:16;;;;;;;7.87;2.23;;;29.80;51.00;;;;;;5011742;28;20445;-65
2023/09/20 11:04:46;;;;;;;8.67;2.40;;;30.40;48.10;;;;;;5011497;28;20473;-66
2023/09/20 11:07:15;;;;;;;7.50;2.07;;;31.00;48.40;;;;;;5011718;28;20481;-67
2023/09/20 11:09:48;;;;;;;8.00;2.50;;;31.30;47.20;;;;;;5011762;28;20470;-65
2023/09/20 11:12:16;;;;;;;7.20;2.30;;;31.10;46.00;;;;;;5011732;28;20473;-65
2023/09/20 11:14:47;;;;;;;8.77;3.50;;;31.70;45.50;;;;;;5011577;28;20474;-65
2023/09/20 11:17:18;;;;;;;7.37;2.57;;;32.20;44.40;;;;;;5011013;28;20450;-67
2023/09/20 11:19:48;;;;;;;8.10;2.47;;;32.80;41.60;;;;;;5011855;28;20553;-64
2023/09/20 11:22:16;;;;;;;7.30;2.07;;;33.30;40.30;;;;;;5011381;28;20454;-66
2023/09/20 11:24:45;;;;;;;7.13;2.03;;;33.60;38.90;;;;;;5011035;28;21058;-66
2023/09/20 11:27:14;;;;;;;7.40;2.30;;;33.00;37.60;;;;;;5010698;28;20539;-66
2023/09/20 11:29:43;;;;;;;7.10;2.23;;;32.40;39.40;;;;;;5011196;28;20470;-66
2023/09/20 11:32:12;;;;;;;8.47;3.10;;;32.30;39.70;;;;;;5011607;28;20450;-65
2023/09/20 11:34:44;;;;;;;9.23;3.33;;;32.40;38.70;;;;;;5011231;28;21076;-65
2023/09/20 11:37:15;;;;;;;9.00;2.40;;;31.40;40.40;;;;;;5010589;28;20448;-65
2023/09/20 11:39:46;;;;;;;9.00;2.10;;;30.90;42.10;;;;;;5011058;28;20528;-70
2023/09/20 11:42:26;;;;;;;7.90;3.00;;;30.80;40.30;;;;;;5010787;28;20882;-66
2023/09/20 11:44:58;;;;;;;8.90;3.30;;;31.00;38.50;;;;;;5010901;28;20995;-66
2023/09/20 11:47:44;;;;;;;8.50;2.83;;;31.10;39.10;;;;;;5003283;28;20438;-67
2023/09/20 11:50:14;;;;;;;7.90;2.80;;;31.70;40.70;;;;;;5011063;28;20469;-65
2023/09/20 11:52:45;;;;;;;8.00;2.30;;;32.90;38.00;;;;;;5003216;28;20458;-66
2023/09/20 11:55:15;;;;;;;9.03;2.47;;;33.80;36.80;;;;;;5010724;28;20453;-65
2023/09/20 11:57:45;;;;;;;8.03;2.30;;;34.20;37.00;;;;;;5010045;28;20532;-64
2023/09/20 12:00:16;;;;;;;8.50;2.60;;;34.50;35.70;;;;;;5010659;28;20559;-65
2023/09/20 12:02:44;;;;;;;8.30;2.67;;;35.00;36.30;;;;;;5010712;28;20438;-67
2023/09/20 12:05:13;;;;;;;9.70;2.10;;;35.30;33.30;;;;;;5010520;28;20485;-67
2023/09/20 12:07:42;;;;;;;8.50;2.50;;;35.40;34.40;;;;;;5009553;28;20447;-67
2023/09/20 12:10:10;;;;;;;7.20;2.27;;;35.40;34.20;;;;;;5010391;28;20527;-66
2023/09/20 12:12:40;;;;;;;7.90;2.47;;;35.20;35.80;;;;;;5002456;28;20533;-67
2023/09/20 12:15:09;;;;;;;7.67;2.00;;;35.20;36.60;;;;;;5010520;28;20518;-66
2023/09/20 12:17:37;;;;;;;7.80;2.40;;;33.70;36.10;;;;;;5009758;28;20438;-66
2023/09/20 12:20:06;;;;;;;7.03;2.13;;;33.30;38.20;;;;;;5010807;28;20458;-65
2023/09/20 12:22:34;;;;;;;7.50;2.20;;;33.70;37.30;;;;;;5010480;28;20442;-67
2023/09/20 12:25:06;;;;;;;7.73;2.83;;;33.10;37.80;;;;;;5010179;28;20564;-64
2023/09/20 12:27:33;;;;;;;7.27;1.87;;;33.10;37.50;;;;;;5009352;28;20962;-65
2023/09/20 12:30:04;;;;;;;7.13;2.07;;;33.90;37.80;;;;;;5009845;28;20474;-66
2023/09/20 12:32:35;;;;;;;7.67;1.87;;;35.10;37.70;;;;;;5010090;28;20469;-66
2023/09/20 12:35:03;;;;;;;8.07;1.73;;;35.20;37.20;;;;;;5010078;28;20537;-65
2023/09/20 12:37:31;;;;;;;6.70;1.43;;;35.40;36.80;;;;;;5009387;28;20508;-65
2023/09/20 12:39:59;;;;;;;7.17;1.70;;;35.70;36.10;;;;;;5009789;28;20969;-66
2023/09/20 12:42:27;;;;;;;7.10;1.50;;;34.70;36.90;;;;;;5009660;28;20484;-65
2023/09/20 12:44:57;;;;;;;7.03;1.60;;;34.90;36.60;;;;;;5010044;28;20481;-65
2023/09/20 12:47:26;;;;;;;6.47;1.33;;;34.30;36.90;;;;;;5009468;28;20508;-66
2023/09/20 12:49:54;;;;;;;7.20;1.47;;;35.20;36.80;;;;;;5009745;28;20492;-66
2023/09/20 12:52:22;;;;;;;6.90;1.50;;;35.70;36.50;;;;;;5009792;28;20919;-65
2023/09/20 12:54:51;;;;;;;7.50;2.10;;;35.10;37.10;;;;;;5009862;28;20452;-67
2023/09/20 12:57:19;;;;;;;8.97;1.50;;;35.60;37.20;;;;;;5008781;28;20461;-67
2023/09/20 12:59:46;;;;;;;6.67;1.53;;;36.30;36.20;;;;;;5009834;28;20472;-67
2023/09/20 13:02:15;;;;;;;6.50;1.30;;;36.50;35.40;;;;;;5009419;28;20461;-67
2023/09/20 13:04:46;;;;;;;6.30;1.30;;;37.10;34.60;;;;;;5010007;28;20536;-68
2023/09/20 13:07:14;;;;;;;6.70;1.57;;;37.50;35.40;;;;;;5009059;28;20449;-66
2023/09/20 13:09:42;;;;;;;7.33;1.50;;;36.90;34.00;;;;;;5009491;28;20531;-67
2023/09/20 13:12:12;;;;;;;6.80;1.40;;;37.50;35.90;;;;;;5009768;28;20480;-66
2023/09/20 13:14:40;;;;;;;6.40;1.13;;;38.10;35.60;;;;;;5009976;28;20442;-68
2023/09/20 13:17:09;;;;;;;6.63;1.37;;;38.50;35.20;;;;;;5009368;28;20434;-67
2023/09/20 13:19:37;;;;;;;6.40;1.23;;;38.80;34.20;;;;;;5010678;28;20515;-68
2023/09/20 13:22:08;;;;;;;6.53;1.33;;;39.20;32.30;;;;;;5012809;28;20451;-65
2023/09/20 13:24:39;;;;;;;6.80;1.43;;;39.60;31.70;;;;;;5012997;28;20450;-63
2023/09/20 13:27:07;;;;;;;6.40;1.10;;;38.50;32.90;;;;;;5011793;28;20513;-65
2023/09/20 13:29:35;;;;;;;6.80;1.80;;;37.00;34.10;;;;;;5013392;28;20469;-65
2023/09/20 13:32:04;;;;;;;6.43;1.20;;;35.20;35.80;;;;;;5013940;28;20457;-65
2023/09/20 13:34:31;;;;;;;6.60;1.40;;;33.80;38.80;;;;;;5013679;28;20543;-66
2023/09/20 13:36:59;;;;;;;6.47;1.30;;;32.90;40.70;;;;;;5013053;28;20437;-67